createdAt,value
2022-10-30T00:01:18.397Z,17.82
2022-10-30T00:03:45.786Z,17.65
2022-10-30T00:06:13.196Z,17.72
2022-10-30T00:08:40.509Z,17.73
2022-10-30T00:11:12.985Z,17.66
2022-10-30T00:13:44.736Z,17.64
2022-10-30T00:16:12.134Z,17.58
2022-10-30T00:18:42.250Z,17.44
2022-10-30T00:21:16.023Z,17.56
2022-10-30T00:23:53.250Z,17.60
2022-10-30T00:26:23.397Z,17.44
2022-10-30T00:28:55.840Z,17.40
2022-10-30T00:31:23.690Z,17.38
2022-10-30T00:33:55.586Z,17.55
2022-10-30T00:36:23.760Z,17.35
2022-10-30T00:38:51.028Z,17.38
2022-10-30T00:41:23.920Z,17.33
2022-10-30T00:43:52.290Z,17.41
2022-10-30T00:46:40.622Z,17.32
2022-10-30T00:49:16.568Z,17.49
2022-10-30T00:51:54.793Z,17.37
2022-10-30T00:54:24.477Z,17.45
2022-10-30T00:56:53.831Z,17.38
2022-10-30T00:59:32.894Z,17.33
2022-10-30T01:02:04.768Z,17.30
2022-10-30T01:04:37.869Z,17.23
2022-10-30T01:07:15.300Z,17.34
2022-10-30T01:09:43.359Z,17.28
2022-10-30T01:12:10.664Z,17.39
2022-10-30T01:14:48.185Z,17.23
2022-10-30T01:18:04.172Z,17.28
2022-10-30T01:21:21.514Z,17.28
2022-10-30T01:24:28.337Z,17.26
2022-10-30T01:28:15.655Z,17.21
2022-10-30T01:31:25.740Z,17.28
2022-10-30T01:35:00.660Z,17.31
2022-10-30T01:38:21.522Z,17.30
2022-10-30T01:40:48.797Z,17.24
2022-10-30T01:43:16.126Z,17.22
2022-10-30T01:46:51.597Z,17.11
2022-10-30T01:50:04.255Z,17.08
2022-10-30T01:52:58.499Z,16.98
2022-10-30T01:56:36.091Z,16.95
2022-10-30T01:59:17.817Z,16.86
2022-10-30T02:01:46.337Z,16.77
2022-10-30T02:04:14.239Z,16.67
2022-10-30T02:06:43.149Z,16.76
2022-10-30T02:09:10.531Z,16.72
2022-10-30T02:11:38.630Z,16.72
2022-10-30T02:14:09.029Z,16.59
2022-10-30T02:16:46.677Z,16.56
2022-10-30T02:19:13.963Z,16.54
2022-10-30T02:21:41.283Z,16.52
2022-10-30T02:24:08.547Z,16.51
2022-10-30T02:26:36.557Z,16.32
2022-10-30T02:29:03.806Z,16.42
2022-10-30T02:31:31.054Z,16.40
2022-10-30T02:33:58.379Z,16.31
2022-10-30T02:36:25.759Z,16.27
2022-10-30T02:38:55.102Z,16.30
2022-10-30T02:41:25.014Z,16.44
2022-10-30T02:43:53.700Z,16.30
2022-10-30T02:46:21.620Z,16.34
2022-10-30T02:48:48.923Z,16.46
2022-10-30T02:51:16.279Z,16.45
2022-10-30T02:53:43.771Z,16.47
2022-10-30T02:56:14.720Z,16.40
2022-10-30T02:58:42.991Z,16.45
2022-10-30T03:01:17.731Z,16.41
2022-10-30T03:03:46.530Z,16.50
2022-10-30T03:06:18.304Z,16.39
2022-10-30T03:08:46.316Z,16.29
2022-10-30T03:11:17.582Z,16.25
2022-10-30T03:13:47.979Z,16.27
2022-10-30T03:16:24.483Z,16.31
2022-10-30T03:18:53.360Z,16.30
2022-10-30T03:21:26.479Z,16.29
2022-10-30T03:23:55.086Z,16.33
2022-10-30T03:26:23.302Z,16.27
2022-10-30T03:28:50.914Z,16.18
2022-10-30T03:31:20.086Z,16.31
2022-10-30T03:33:47.527Z,16.20
2022-10-30T03:36:16.772Z,16.24
2022-10-30T03:38:44.038Z,16.25
2022-10-30T03:41:11.334Z,16.14
2022-10-30T03:43:38.623Z,16.18
2022-10-30T03:46:06.088Z,16.14
2022-10-30T03:48:33.391Z,16.13
2022-10-30T03:51:00.935Z,16.05
2022-10-30T03:53:29.697Z,16.08
2022-10-30T03:56:04.585Z,16.08
2022-10-30T03:58:31.918Z,16.11
2022-10-30T04:01:07.569Z,16.18
2022-10-30T04:03:35.271Z,16.20
2022-10-30T04:06:03.110Z,16.14
2022-10-30T04:08:30.381Z,16.11
2022-10-30T04:10:57.743Z,16.14
2022-10-30T04:13:25.454Z,16.10
2022-10-30T04:15:57.286Z,16.14
2022-10-30T04:18:26.500Z,16.20
2022-10-30T04:20:54.227Z,16.08
2022-10-30T04:23:22.664Z,16.12
2022-10-30T04:25:49.957Z,16.16
2022-10-30T04:28:17.619Z,15.92
2022-10-30T04:30:46.912Z,16.12
2022-10-30T04:33:14.804Z,16.13
2022-10-30T04:35:42.863Z,16.00
2022-10-30T04:38:16.085Z,16.04
2022-10-30T04:40:44.547Z,15.97
2022-10-30T04:43:14.035Z,15.91
2022-10-30T04:45:42.500Z,15.98
2022-10-30T04:48:18.745Z,15.91
2022-10-30T04:50:46.434Z,15.86
2022-10-30T04:53:19.315Z,15.84
2022-10-30T04:55:46.940Z,15.84
2022-10-30T04:58:14.518Z,15.85
2022-10-30T05:00:43.240Z,15.73
2022-10-30T05:03:24.607Z,15.80
2022-10-30T05:06:24.819Z,15.81
2022-10-30T05:08:52.151Z,15.70
2022-10-30T05:11:19.785Z,15.72
2022-10-30T05:13:47.067Z,15.73
2022-10-30T05:16:14.511Z,15.67
2022-10-30T05:18:41.782Z,15.65
2022-10-30T05:21:11.282Z,15.75
2022-10-30T05:23:38.644Z,15.63
2022-10-30T05:26:05.966Z,15.61
2022-10-30T05:28:34.111Z,15.72
2022-10-30T05:31:01.369Z,15.59
2022-10-30T05:33:28.675Z,15.62
2022-10-30T05:35:55.931Z,15.71
2022-10-30T05:38:23.202Z,15.73
2022-10-30T05:40:50.579Z,15.74
2022-10-30T05:43:17.847Z,15.83
2022-10-30T05:45:45.110Z,15.77
2022-10-30T05:48:12.438Z,15.73
2022-10-30T05:50:39.712Z,15.76
2022-10-30T05:53:07.140Z,15.83
2022-10-30T05:55:41.542Z,15.69
2022-10-30T05:58:12.315Z,15.74
2022-10-30T06:00:41.641Z,15.69
2022-10-30T06:03:12.844Z,15.77
2022-10-30T06:05:41.576Z,15.77
2022-10-30T06:08:09.185Z,15.75
2022-10-30T06:10:37.722Z,15.67
2022-10-30T06:13:07.775Z,15.55
2022-10-30T06:15:35.080Z,15.52
2022-10-30T06:18:02.726Z,15.41
2022-10-30T06:20:31.314Z,15.42
2022-10-30T06:23:06.882Z,15.55
2022-10-30T06:25:41.088Z,15.45
2022-10-30T06:28:11.563Z,15.42
2022-10-30T06:30:39.781Z,15.38
2022-10-30T06:33:07.822Z,15.49
2022-10-30T06:35:35.204Z,15.42
2022-10-30T06:38:02.581Z,15.36
2022-10-30T06:40:30.571Z,15.29
2022-10-30T06:42:58.719Z,15.44
2022-10-30T06:45:26.577Z,15.37
2022-10-30T06:47:53.929Z,15.31
2022-10-30T06:50:24.127Z,15.34
2022-10-30T06:52:51.783Z,15.52
2022-10-30T06:55:19.773Z,15.38
2022-10-30T06:57:53.088Z,15.54
2022-10-30T07:00:20.464Z,15.45
2022-10-30T07:03:01.474Z,15.45
2022-10-30T07:05:29.535Z,15.58
2022-10-30T07:07:58.026Z,15.57
2022-10-30T07:10:25.410Z,15.61
2022-10-30T07:12:56.504Z,15.61
2022-10-30T07:15:24.407Z,15.61
2022-10-30T07:18:04.219Z,15.54
2022-10-30T07:20:34.983Z,15.65
2022-10-30T07:23:03.533Z,15.68
2022-10-30T07:25:30.987Z,15.63
2022-10-30T07:28:03.084Z,15.60
2022-10-30T07:30:30.617Z,15.57
2022-10-30T07:33:08.366Z,15.69
2022-10-30T07:35:36.889Z,15.66
2022-10-30T07:38:10.535Z,15.82
2022-10-30T07:40:38.392Z,15.97
2022-10-30T07:43:06.419Z,16.03
2022-10-30T07:45:34.454Z,15.83
2022-10-30T07:48:02.393Z,16.08
2022-10-30T07:50:30.430Z,16.13
2022-10-30T07:52:58.023Z,16.16
2022-10-30T07:55:25.298Z,16.18
2022-10-30T07:57:52.572Z,16.20
2022-10-30T08:00:20.296Z,16.28
2022-10-30T08:02:57.847Z,16.37
2022-10-30T08:05:28.862Z,16.30
2022-10-30T08:07:58.387Z,16.47
2022-10-30T08:10:26.142Z,16.48
2022-10-30T08:12:53.657Z,16.49
2022-10-30T08:15:21.002Z,16.74
2022-10-30T08:17:50.696Z,16.85
2022-10-30T08:20:23.779Z,16.96
2022-10-30T08:22:58.080Z,16.98
2022-10-30T08:25:30.533Z,17.18
2022-10-30T08:28:07.855Z,17.26
2022-10-30T08:30:37.497Z,17.47
2022-10-30T08:33:13.638Z,17.55
2022-10-30T08:35:58.868Z,17.66
2022-10-30T08:38:29.330Z,17.89
2022-10-30T08:40:56.602Z,17.89
2022-10-30T08:43:25.293Z,18.05
2022-10-30T08:45:52.570Z,18.15
2022-10-30T08:48:19.935Z,18.24
2022-10-30T08:50:47.212Z,18.29
2022-10-30T08:53:15.887Z,18.39
2022-10-30T08:55:43.591Z,18.39
2022-10-30T08:58:11.132Z,18.46
2022-10-30T09:00:38.902Z,18.51
2022-10-30T09:03:06.248Z,18.61
2022-10-30T09:05:33.547Z,18.61
2022-10-30T09:08:01.737Z,18.70
2022-10-30T09:10:30.638Z,19.03
2022-10-30T09:13:00.045Z,19.21
2022-10-30T09:15:27.600Z,19.33
2022-10-30T09:18:04.326Z,19.35
2022-10-30T09:20:32.011Z,19.42
2022-10-30T09:22:59.663Z,19.31
2022-10-30T09:25:27.249Z,19.55
2022-10-30T09:27:54.510Z,19.46
2022-10-30T09:30:22.206Z,19.53
2022-10-30T09:33:04.952Z,19.54
2022-10-30T09:35:33.030Z,19.62
2022-10-30T09:38:00.569Z,19.71
2022-10-30T09:41:30.694Z,19.70
2022-10-30T09:44:45.815Z,20.02
2022-10-30T09:48:31.460Z,20.14
2022-10-30T09:52:28.038Z,20.44
2022-10-30T09:55:42.623Z,20.55
2022-10-30T09:58:46.887Z,20.72
2022-10-30T10:02:18.565Z,20.98
2022-10-30T10:04:54.870Z,21.10
2022-10-30T10:07:39.287Z,21.24
2022-10-30T10:10:40.289Z,21.36
2022-10-30T10:13:53.635Z,21.48
2022-10-30T10:16:36.749Z,21.62
2022-10-30T10:19:56.301Z,21.87
2022-10-30T10:22:43.875Z,21.94
2022-10-30T10:25:19.129Z,21.96
2022-10-30T10:28:47.614Z,22.10
2022-10-30T10:31:58.326Z,22.06
2022-10-30T10:35:19.408Z,22.14
2022-10-30T10:38:53.064Z,22.22
2022-10-30T10:41:56.740Z,22.04
2022-10-30T10:45:33.376Z,22.17
2022-10-30T10:49:17.882Z,22.23
2022-10-30T10:51:59.593Z,22.18
2022-10-30T10:55:02.455Z,22.17
2022-10-30T10:57:38.072Z,22.25
2022-10-30T11:00:20.791Z,22.37
2022-10-30T11:03:21.406Z,22.41
2022-10-30T11:05:58.694Z,22.52
2022-10-30T11:08:34.855Z,22.53
2022-10-30T11:11:07.616Z,22.50
2022-10-30T11:13:45.459Z,22.52
2022-10-30T11:16:51.650Z,22.56
2022-10-30T11:19:19.754Z,22.57
2022-10-30T11:21:53.306Z,22.54
2022-10-30T11:24:34.229Z,22.66
2022-10-30T11:27:24.412Z,22.83
2022-10-30T11:30:07.003Z,22.83
2022-10-30T11:32:35.420Z,22.86
2022-10-30T11:35:19.983Z,22.93
2022-10-30T11:37:52.294Z,23.09
2022-10-30T11:40:25.627Z,23.29
2022-10-30T11:43:05.011Z,23.56
2022-10-30T11:45:41.800Z,23.49
2022-10-30T11:48:33.898Z,23.50
2022-10-30T11:51:03.968Z,23.51
2022-10-30T11:53:48.988Z,23.61
2022-10-30T11:56:23.808Z,23.45
2022-10-30T11:58:57.126Z,23.52
2022-10-30T12:01:39.189Z,23.71
2022-10-30T12:04:31.955Z,23.71
2022-10-30T12:07:23.561Z,23.72
2022-10-30T12:09:51.003Z,23.57
2022-10-30T12:12:38.752Z,23.55
2022-10-30T12:15:37.678Z,23.68
2022-10-30T12:18:16.979Z,23.68
2022-10-30T12:20:52.615Z,23.92
2022-10-30T12:23:25.900Z,23.82
2022-10-30T12:25:59.115Z,24.06
2022-10-30T12:28:32.963Z,24.18
2022-10-30T12:31:20.905Z,24.12
2022-10-30T12:34:22.691Z,24.13
2022-10-30T12:37:03.982Z,24.19
2022-10-30T12:40:01.810Z,24.29
2022-10-30T12:42:31.191Z,24.30
2022-10-30T12:45:32.821Z,24.28
2022-10-30T12:48:37.425Z,24.21
2022-10-30T12:52:03.615Z,24.20
2022-10-30T12:54:56.677Z,24.45
2022-10-30T12:57:41.378Z,24.48
2022-10-30T13:00:17.527Z,24.69
2022-10-30T13:03:19.715Z,24.58
2022-10-30T13:06:09.817Z,24.58
2022-10-30T13:09:27.487Z,24.64
2022-10-30T13:12:19.603Z,24.71
2022-10-30T13:15:10.967Z,24.64
2022-10-30T13:17:38.236Z,24.68
2022-10-30T13:20:15.376Z,24.82
2022-10-30T13:23:31.615Z,24.74
2022-10-30T13:26:14.903Z,24.53
2022-10-30T13:29:31.650Z,24.32
2022-10-30T13:33:00.527Z,24.26
2022-10-30T13:35:59.558Z,24.38
2022-10-30T13:38:59.786Z,24.21
2022-10-30T13:41:53.226Z,24.25
2022-10-30T13:45:02.662Z,24.14
2022-10-30T13:47:59.606Z,24.11
2022-10-30T13:51:08.912Z,23.99
2022-10-30T13:53:41.415Z,23.85
2022-10-30T13:56:17.710Z,23.77
2022-10-30T13:59:28.945Z,23.79
2022-10-30T14:02:38.761Z,23.85
2022-10-30T14:06:16.064Z,23.68
2022-10-30T14:09:39.564Z,23.61
2022-10-30T14:13:26.861Z,23.60
2022-10-30T14:16:27.202Z,23.56
2022-10-30T14:19:16.309Z,23.58
2022-10-30T14:21:58.303Z,23.53
2022-10-30T14:24:34.571Z,23.55
2022-10-30T14:27:04.771Z,23.61
2022-10-30T14:29:35.045Z,23.57
2022-10-30T14:32:14.107Z,23.50
2022-10-30T14:34:51.823Z,23.42
2022-10-30T14:37:28.077Z,23.37
2022-10-30T14:39:57.243Z,23.43
2022-10-30T14:42:53.230Z,23.46
2022-10-30T14:45:39.104Z,23.44
2022-10-30T14:48:59.876Z,23.31
2022-10-30T14:51:49.756Z,23.31
2022-10-30T14:54:56.918Z,23.36
2022-10-30T14:57:52.136Z,23.29
2022-10-30T15:00:25.905Z,23.26
2022-10-30T15:03:16.328Z,23.23
2022-10-30T15:06:01.356Z,23.30
2022-10-30T15:09:15.659Z,23.23
2022-10-30T15:12:08.836Z,23.35
2022-10-30T15:14:54.839Z,23.32
2022-10-30T15:17:43.366Z,23.30
2022-10-30T15:20:40.323Z,23.45
2022-10-30T15:23:30.124Z,23.41
2022-10-30T15:26:09.228Z,23.51
2022-10-30T15:28:38.813Z,23.60
2022-10-30T15:31:27.222Z,23.55
2022-10-30T15:33:57.878Z,23.43
2022-10-30T15:36:41.040Z,23.49
2022-10-30T15:39:19.806Z,23.46
2022-10-30T15:42:01.960Z,23.37
2022-10-30T15:44:45.483Z,23.29
2022-10-30T15:47:20.983Z,23.25
2022-10-30T15:49:55.949Z,23.15
2022-10-30T15:52:31.746Z,23.12
2022-10-30T15:55:10.309Z,23.02
2022-10-30T15:58:08.149Z,22.97
2022-10-30T16:00:38.128Z,22.95
2022-10-30T16:03:17.936Z,22.86
2022-10-30T16:05:45.290Z,22.79
2022-10-30T16:08:24.657Z,22.75
2022-10-30T16:10:56.044Z,22.60
2022-10-30T16:13:30.464Z,22.46
2022-10-30T16:15:58.721Z,22.42
2022-10-30T16:18:36.330Z,22.43
2022-10-30T16:21:09.468Z,22.42
2022-10-30T16:23:53.688Z,22.29
2022-10-30T16:26:39.537Z,22.21
2022-10-30T16:29:21.179Z,22.16
2022-10-30T16:31:49.976Z,22.06
2022-10-30T16:34:36.542Z,22.04
2022-10-30T16:37:07.194Z,21.94
2022-10-30T16:39:37.018Z,21.89
2022-10-30T16:42:04.707Z,21.69
2022-10-30T16:44:36.233Z,21.69
2022-10-30T16:47:18.593Z,21.68
2022-10-30T16:49:57.671Z,21.61
2022-10-30T16:52:37.958Z,21.55
2022-10-30T16:55:24.495Z,21.50
2022-10-30T16:57:58.695Z,21.25
2022-10-30T17:00:32.733Z,21.34
2022-10-30T17:03:11.603Z,21.22
2022-10-30T17:05:42.390Z,21.16
2022-10-30T17:08:18.613Z,21.14
2022-10-30T17:10:48.484Z,21.03
2022-10-30T17:13:43.159Z,21.01
2022-10-30T17:16:30.215Z,20.74
2022-10-30T17:19:21.335Z,20.76
2022-10-30T17:21:53.123Z,20.64
2022-10-30T17:24:35.774Z,20.58
2022-10-30T17:27:23.410Z,20.58
2022-10-30T17:29:50.666Z,20.54
2022-10-30T17:32:43.866Z,20.61
2022-10-30T17:35:19.351Z,20.50
2022-10-30T17:37:46.935Z,20.46
2022-10-30T17:40:15.199Z,20.46
2022-10-30T17:42:42.616Z,20.45
2022-10-30T17:45:15.245Z,20.34
2022-10-30T17:47:42.577Z,20.29
2022-10-30T17:50:10.545Z,20.24
2022-10-30T17:52:37.870Z,20.22
2022-10-30T17:55:28.329Z,20.11
2022-10-30T17:57:58.833Z,20.17
2022-10-30T18:00:26.223Z,20.13
2022-10-30T18:02:53.526Z,20.14
2022-10-30T18:05:25.917Z,20.05
2022-10-30T18:07:53.189Z,20.14
2022-10-30T18:10:20.448Z,20.12
2022-10-30T18:12:47.722Z,19.87
2022-10-30T18:15:40.890Z,19.82
2022-10-30T18:18:08.173Z,19.98
2022-10-30T18:20:36.682Z,19.92
2022-10-30T18:23:25.527Z,19.80
2022-10-30T18:26:00.071Z,19.79
2022-10-30T18:28:28.171Z,19.77
2022-10-30T18:31:01.109Z,19.74
2022-10-30T18:33:28.394Z,19.72
2022-10-30T18:35:57.532Z,19.60
2022-10-30T18:38:24.896Z,19.61
2022-10-30T18:40:52.249Z,19.46
2022-10-30T18:43:19.659Z,19.24
2022-10-30T18:45:46.938Z,19.41
2022-10-30T18:48:14.227Z,19.39
2022-10-30T18:50:43.020Z,19.35
2022-10-30T18:53:19.673Z,19.40
2022-10-30T18:58:34.990Z,19.20
2022-10-30T19:01:17.841Z,19.06
2022-10-30T19:03:46.940Z,19.10
2022-10-30T19:06:22.789Z,19.07
2022-10-30T19:08:50.894Z,19.12
2022-10-30T19:11:24.552Z,19.02
2022-10-30T19:13:53.985Z,19.11
2022-10-30T19:16:25.160Z,18.99
2022-10-30T19:18:53.016Z,19.00
2022-10-30T19:21:27.868Z,18.96
2022-10-30T19:23:56.288Z,18.80
2022-10-30T19:26:23.591Z,18.78
2022-10-30T19:28:50.868Z,18.91
2022-10-30T19:31:20.195Z,18.79
2022-10-30T19:33:51.476Z,18.71
2022-10-30T19:36:36.996Z,18.71
2022-10-30T19:39:12.971Z,18.66
2022-10-30T19:41:41.171Z,18.54
2022-10-30T19:44:08.879Z,18.53
2022-10-30T19:46:37.389Z,18.55
2022-10-30T19:49:19.430Z,18.53
2022-10-30T19:51:47.460Z,18.55
2022-10-30T19:54:14.868Z,18.43
2022-10-30T19:56:43.909Z,18.59
2022-10-30T19:59:14.939Z,18.61
2022-10-30T20:01:44.620Z,18.50
2022-10-30T20:04:12.359Z,18.42
2022-10-30T20:06:39.731Z,18.36
2022-10-30T20:09:11.527Z,18.41
2022-10-30T20:11:38.811Z,18.28
2022-10-30T20:14:06.071Z,18.14
2022-10-30T20:16:33.332Z,18.15
2022-10-30T20:19:00.583Z,18.13
2022-10-30T20:21:30.828Z,18.13
2022-10-30T20:23:58.084Z,18.03
2022-10-30T20:26:29.599Z,17.97
2022-10-30T20:29:03.163Z,17.95
2022-10-30T20:31:30.417Z,17.93
2022-10-30T20:33:57.684Z,18.03
2022-10-30T20:36:24.946Z,17.99
2022-10-30T20:38:52.341Z,17.96
2022-10-30T20:41:28.048Z,17.89
2022-10-30T20:43:55.513Z,17.77
2022-10-30T20:46:22.830Z,17.89
2022-10-30T20:48:50.142Z,17.88
2022-10-30T20:51:17.438Z,17.84
2022-10-30T20:53:44.776Z,17.78
2022-10-30T20:56:12.189Z,17.79
2022-10-30T20:58:40.985Z,17.69
2022-10-30T21:01:08.699Z,17.60
2022-10-30T21:03:36.159Z,17.63
2022-10-30T21:06:03.653Z,17.53
2022-10-30T21:08:32.091Z,17.60
2022-10-30T21:11:02.322Z,17.45
2022-10-30T21:13:30.051Z,17.35
2022-10-30T21:16:04.651Z,17.39
2022-10-30T21:18:32.459Z,17.40
2022-10-30T21:21:11.461Z,17.39
2022-10-30T21:23:38.888Z,17.41
2022-10-30T21:26:10.924Z,17.45
2022-10-30T21:28:40.886Z,17.28
2022-10-30T21:31:13.244Z,17.18
2022-10-30T21:33:40.892Z,17.17
2022-10-30T21:36:16.761Z,16.99
2022-10-30T21:38:44.862Z,16.96
2022-10-30T21:41:17.309Z,17.09
2022-10-30T21:43:51.332Z,17.00
2022-10-30T21:46:20.687Z,16.88
2022-10-30T21:48:48.217Z,16.91
2022-10-30T21:51:26.927Z,16.99
2022-10-30T21:53:56.074Z,16.96
2022-10-30T21:56:28.834Z,16.81
2022-10-30T21:59:04.745Z,16.85
2022-10-30T22:01:36.892Z,16.80
2022-10-30T22:04:09.105Z,16.77
2022-10-30T22:06:44.080Z,16.70
2022-10-30T22:09:16.158Z,16.70
2022-10-30T22:11:44.064Z,16.88
2022-10-30T22:14:11.748Z,16.71
2022-10-30T22:16:40.024Z,16.56
2022-10-30T22:19:10.159Z,16.54
2022-10-30T22:21:37.511Z,16.54
2022-10-30T22:24:07.096Z,16.55
2022-10-30T22:26:34.386Z,16.51
2022-10-30T22:29:01.776Z,16.39
2022-10-30T22:31:30.256Z,16.40
2022-10-30T22:34:01.283Z,16.46
2022-10-30T22:36:33.254Z,16.31
2022-10-30T22:39:12.289Z,16.44
2022-10-30T22:41:40.278Z,16.42
2022-10-30T22:44:14.674Z,16.42
2022-10-30T22:46:41.975Z,16.40
2022-10-30T22:49:09.612Z,16.42
2022-10-30T22:51:39.661Z,16.40
2022-10-30T22:54:14.322Z,16.34
2022-10-30T22:56:42.265Z,16.28
2022-10-30T22:59:13.803Z,16.13
2022-10-30T23:01:43.285Z,16.07
2022-10-30T23:04:15.051Z,16.04
2022-10-30T23:06:44.158Z,15.93
2022-10-30T23:09:23.352Z,15.97
2022-10-30T23:11:50.968Z,15.96
2022-10-30T23:14:19.026Z,15.97
2022-10-30T23:16:46.327Z,16.03
2022-10-30T23:19:13.592Z,16.02
2022-10-30T23:21:40.861Z,15.88
2022-10-30T23:24:09.659Z,15.84
2022-10-30T23:26:38.177Z,15.93
2022-10-30T23:29:05.908Z,16.05
2022-10-30T23:31:43.398Z,16.08
2022-10-30T23:34:16.610Z,16.03
2022-10-30T23:36:44.675Z,16.02
2022-10-30T23:39:17.872Z,16.06
2022-10-30T23:41:45.556Z,16.04
2022-10-30T23:44:15.905Z,15.96
2022-10-30T23:46:43.719Z,15.82
2022-10-30T23:49:11.378Z,15.86
2022-10-30T23:51:39.039Z,15.88
2022-10-30T23:54:06.371Z,15.86
2022-10-30T23:56:33.663Z,15.72
2022-10-30T23:59:01.282Z,15.66
